Time;durP1;ratioP1;P1;durP2;ratioP2;P2;SDS_P1;SDS_P2;PMS_P1;PMS_P2;Temp;Humidity;BMP_temperature;BMP_pressure;BME280_temperature;BME280_humidity;BME280_pressure;Samples;Min_cycle;Max_cycle;Signal;HPM_P1;HPM_P2
2021/04/09 00:02:25;;;;;;;57.60;26.05;;;;;;;-0.64;71.52;97974.34;1852014;77;26753;-80
2021/04/09 00:04:52;;;;;;;56.00;24.85;;;;;;;-0.68;71.44;97971.58;1851869;77;26104;-79
2021/04/09 00:07:20;;;;;;;49.23;23.20;;;;;;;-0.77;71.46;97973.67;1851936;77;25712;-79
2021/04/09 00:09:47;;;;;;;36.35;19.23;;;;;;;-0.72;71.61;97972.80;1851913;77;25717;-79
2021/04/09 00:12:15;;;;;;;46.75;21.75;;;;;;;-0.79;71.54;97968.50;1852024;77;25923;-79
2021/04/09 00:14:42;;;;;;;47.48;22.98;;;;;;;-0.81;71.64;97972.23;1851884;77;27812;-79
2021/04/09 00:17:10;;;;;;;56.75;25.25;;;;;;;-0.79;71.60;97970.30;1851735;77;25752;-80
2021/04/09 00:19:37;;;;;;;50.60;22.45;;;;;;;-0.80;71.54;97976.09;1847988;77;26274;-80
2021/04/09 00:22:05;;;;;;;40.78;18.65;;;;;;;-0.82;71.46;97970.55;1843066;77;25808;-79
2021/04/09 00:24:32;;;;;;;39.90;19.23;;;;;;;-0.81;71.33;97978.86;1843042;77;26025;-79
2021/04/09 00:27:00;;;;;;;36.53;18.15;;;;;;;-0.87;71.39;97972.28;1842978;77;28442;-79
2021/04/09 00:29:27;;;;;;;34.67;18.02;;;;;;;-1.00;71.41;97975.58;1842957;77;26304;-79
2021/04/09 00:31:55;;;;;;;34.43;17.95;;;;;;;-1.13;71.53;97981.03;1842989;77;25627;-80
2021/04/09 00:34:22;;;;;;;33.95;17.57;;;;;;;-1.21;71.64;97976.00;1843017;77;25740;-79
2021/04/09 00:36:50;;;;;;;33.38;16.32;;;;;;;-1.22;71.74;97973.00;1843033;77;25771;-79
2021/04/09 00:39:17;;;;;;;33.58;17.12;;;;;;;-1.28;71.79;97979.61;1843015;77;27630;-80
2021/04/09 00:41:45;;;;;;;35.48;19.05;;;;;;;-1.37;71.80;97975.55;1842955;77;25627;-79
2021/04/09 00:44:12;;;;;;;33.33;17.00;;;;;;;-1.41;71.96;97978.07;1842978;77;25736;-80
2021/04/09 00:46:41;;;;;;;36.45;17.02;;;;;;;-1.43;71.87;97983.48;1842987;77;25725;-79
2021/04/09 00:49:10;;;;;;;38.95;18.42;;;;;;;-1.45;71.89;97978.31;1843122;77;25807;-79
2021/04/09 00:51:37;;;;;;;39.58;18.75;;;;;;;-1.39;71.93;97974.82;1843024;77;27484;-80
2021/04/09 00:54:07;;;;;;;36.68;18.55;;;;;;;-1.45;71.88;97981.47;1842935;77;25726;-80
2021/04/09 00:56:36;;;;;;;33.08;16.02;;;;;;;-1.48;71.94;97984.36;1842978;77;25333;-80
2021/04/09 00:59:04;;;;;;;35.38;16.57;;;;;;;-1.46;72.01;97982.43;1843000;77;25740;-80
2021/04/09 01:01:32;;;;;;;33.05;16.65;;;;;;;-1.43;71.99;97975.55;1843158;77;25765;-80
2021/04/09 01:04:01;;;;;;;32.95;14.98;;;;;;;-1.41;71.90;97986.02;1843058;77;28402;-80
2021/04/09 01:06:28;;;;;;;30.50;12.93;;;;;;;-1.53;71.90;97980.73;1842973;77;26072;-80
2021/04/09 01:08:55;;;;;;;28.52;14.20;;;;;;;-1.58;71.89;97984.25;1842975;77;25705;-80
2021/04/09 01:11:23;;;;;;;27.07;13.08;;;;;;;-1.55;72.01;97985.78;1843033;77;26536;-80
2021/04/09 01:13:50;;;;;;;33.10;16.10;;;;;;;-1.48;72.01;97980.38;1843098;77;25677;-80
2021/04/09 01:16:45;;;;;;;24.15;12.10;;;;;;;-1.52;71.81;97982.42;1843032;77;27661;-80
2021/04/09 01:19:49;;;;;;;21.60;12.07;;;;;;;-1.56;71.75;97980.13;1843267;77;25820;-80
2021/04/09 01:22:18;;;;;;;19.30;11.25;;;;;;;-1.60;71.83;97975.58;1846835;77;25673;-80
2021/04/09 01:25:36;;;;;;;21.02;12.33;;;;;;;-1.67;71.88;97977.49;1846797;76;25721;-80
2021/04/09 01:28:21;;;;;;;19.12;11.73;;;;;;;-1.72;71.89;97972.58;1846979;77;25740;-80
2021/04/09 01:31:22;;;;;;;20.35;11.08;;;;;;;-1.74;72.02;97974.98;1846994;77;27666;-80
2021/04/09 01:33:55;;;;;;;25.88;12.30;;;;;;;-1.70;72.00;97973.31;1825439;76;25846;-80
2021/04/09 01:36:39;;;;;;;26.55;11.95;;;;;;;-1.71;71.91;97973.42;1847223;77;25875;-80
2021/04/09 01:39:20;;;;;;;23.70;11.95;;;;;;;-1.73;71.88;97975.34;1846785;76;25676;-80
2021/04/09 01:41:51;;;;;;;16.80;8.93;;;;;;;-1.79;71.79;97970.52;1825084;77;25731;-80
2021/04/09 01:44:23;;;;;;;20.60;11.10;;;;;;;-1.88;71.80;97974.74;1846949;77;28428;-80
2021/04/09 01:46:54;;;;;;;22.22;11.10;;;;;;;-1.89;71.83;97975.22;1846980;77;25780;-80
2021/04/09 01:49:23;;;;;;;35.68;18.67;;;;;;;-1.92;71.83;97970.16;1795997;79;25771;-80
2021/04/09 01:51:52;;;;;;;24.30;14.70;;;;;;;-1.94;71.89;97966.82;1799026;79;26373;-80
2021/04/09 01:54:23;;;;;;;22.02;12.88;;;;;;;-1.95;71.93;97973.07;1764244;81;25738;-80
2021/04/09 01:56:52;;;;;;;28.20;13.22;;;;;;;-2.06;71.89;97973.06;1769799;79;27489;-80
2021/04/09 01:59:21;;;;;;;25.65;14.35;;;;;;;-2.08;71.92;97965.73;1764310;81;25812;-80
2021/04/09 02:01:50;;;;;;;29.27;16.45;;;;;;;-2.05;72.03;97965.47;1799015;79;25712;-80
2021/04/09 02:04:21;;;;;;;25.55;14.15;;;;;;;-2.01;71.99;97968.24;1795967;78;25746;-80
2021/04/09 02:06:50;;;;;;;27.93;14.63;;;;;;;-2.04;71.88;97968.47;1799208;79;25811;-80
2021/04/09 02:09:18;;;;;;;22.00;11.70;;;;;;;-2.17;71.89;97964.61;1799422;79;27484;-80
2021/04/09 02:11:45;;;;;;;23.30;11.33;;;;;;;-2.18;72.04;97963.44;1799236;79;26326;-80
2021/04/09 02:14:15;;;;;;;22.17;11.57;;;;;;;-2.24;72.04;97966.06;1799429;79;26553;-80
2021/04/09 02:16:45;;;;;;;21.12;10.80;;;;;;;-2.24;72.05;97963.41;1799319;79;26434;-80
2021/04/09 02:19:13;;;;;;;18.80;10.20;;;;;;;-2.35;72.02;97960.76;1799221;79;25888;-80
2021/04/09 02:21:42;;;;;;;22.20;11.53;;;;;;;-2.40;72.16;97961.58;1765145;80;28532;-80
2021/04/09 02:24:10;;;;;;;21.23;12.05;;;;;;;-2.46;72.22;97959.89;1831990;78;25699;-80
2021/04/09 02:26:40;;;;;;;20.90;12.68;;;;;;;-2.44;72.30;97957.98;1832022;78;25705;-80
2021/04/09 02:29:07;;;;;;;24.47;13.48;;;;;;;-2.42;72.32;97953.42;1832055;78;25618;-80
2021/04/09 02:31:36;;;;;;;28.32;12.37;;;;;;;-2.43;72.30;97955.70;1832183;78;25657;-80
2021/04/09 02:34:04;;;;;;;20.02;10.72;;;;;;;-2.49;72.31;97954.84;1832055;77;26958;-80
2021/04/09 02:36:32;;;;;;;21.55;10.45;;;;;;;-2.56;72.37;97955.80;1781952;80;25707;-80
2021/04/09 02:39:23;;;;;;;20.55;10.13;;;;;;;-2.50;72.47;97955.80;1832116;77;25785;-80
2021/04/09 02:42:00;;;;;;;18.70;10.05;;;;;;;-2.46;72.41;97953.29;1832080;78;25752;-80
2021/04/09 02:44:28;;;;;;;18.35;9.43;;;;;;;-2.46;72.36;97958.09;1832019;77;25754;-80
2021/04/09 02:47:04;;;;;;;19.48;10.30;;;;;;;-2.50;72.31;97953.98;1832106;78;27664;-80
2021/04/09 02:49:46;;;;;;;17.50;10.23;;;;;;;-2.51;72.33;97955.42;1832058;78;25691;-80
2021/04/09 02:52:17;;;;;;;14.57;7.77;;;;;;;-2.55;72.29;97938.98;1832406;78;25720;-80
2021/04/09 02:54:52;;;;;;;15.13;8.40;;;;;;;-2.55;72.29;97938.98;1832313;78;26717;-80
2021/04/09 02:57:24;;;;;;;20.17;10.13;;;;;;;-2.44;72.22;97955.34;1832158;78;25705;-80
2021/04/09 02:59:55;;;;;;;19.00;10.13;;;;;;;-2.50;72.23;97961.08;1832197;78;28398;-80
2021/04/09 03:02:24;;;;;;;17.32;9.25;;;;;;;-2.49;72.15;97962.77;1832269;78;25730;-80
2021/04/09 03:04:53;;;;;;;17.02;9.83;;;;;;;-2.59;72.14;97959.51;1782210;80;25746;-80
2021/04/09 03:07:21;;;;;;;20.85;11.55;;;;;;;-2.65;72.14;97962.59;1832331;77;25723;-80
2021/04/09 03:09:48;;;;;;;18.62;10.85;;;;;;;-2.61;72.25;97956.61;1832323;78;25743;-80
2021/04/09 03:12:20;;;;;;;23.85;12.70;;;;;;;-2.58;72.15;97961.20;1832264;78;27544;-80
2021/04/09 03:14:51;;;;;;;22.62;13.10;;;;;;;-2.54;72.09;97959.98;1832250;77;25753;-80
2021/04/09 03:17:33;;;;;;;26.10;13.35;;;;;;;-2.53;71.95;97959.50;1782285;79;25738;-80
2021/04/09 03:20:01;;;;;;;18.15;10.15;;;;;;;-2.55;71.80;97957.00;1833249;77;25642;-80
2021/04/09 03:22:28;;;;;;;25.85;11.20;;;;;;;-2.62;71.82;97955.77;1838440;77;25685;-79
2021/04/09 03:24:55;;;;;;;23.98;11.43;;;;;;;-2.73;71.72;97964.98;1838229;77;27676;-80
2021/04/09 03:27:23;;;;;;;22.65;11.43;;;;;;;-2.83;71.83;97962.67;1838127;78;26055;-80
2021/04/09 03:29:50;;;;;;;24.12;12.63;;;;;;;-2.92;71.99;97960.25;1838172;77;25833;-80
2021/04/09 03:32:18;;;;;;;24.45;11.63;;;;;;;-2.99;72.01;97954.20;1838199;78;26639;-80
2021/04/09 03:34:46;;;;;;;33.88;13.50;;;;;;;-2.98;72.20;97950.13;1787929;79;26027;-80
2021/04/09 03:37:13;;;;;;;23.62;13.22;;;;;;;-2.96;72.21;97957.94;1787941;80;26497;-80
2021/04/09 03:39:41;;;;;;;24.15;12.90;;;;;;;-2.90;72.25;97956.18;1787552;80;25700;-80
2021/04/09 03:42:09;;;;;;;31.40;15.00;;;;;;;-2.80;72.25;97949.72;1756720;80;25816;-80
2021/04/09 03:44:37;;;;;;;24.40;13.53;;;;;;;-2.76;72.13;97950.67;1787727;80;26344;-80
2021/04/09 03:47:04;;;;;;;29.25;12.75;;;;;;;-2.77;71.97;97952.95;1756768;81;25925;-80
2021/04/09 03:49:32;;;;;;;30.23;14.40;;;;;;;-2.76;71.96;97953.31;1787635;80;27555;-80
2021/04/09 03:52:02;;;;;;;36.40;16.95;;;;;;;-2.75;71.89;97948.88;1787916;79;25755;-81
2021/04/09 03:54:29;;;;;;;30.90;16.48;;;;;;;-2.74;71.87;97959.34;1787735;80;25735;-80
2021/04/09 03:56:57;;;;;;;28.67;15.08;;;;;;;-2.75;71.86;97956.80;1756784;81;25731;-79
2021/04/09 03:59:24;;;;;;;35.10;16.07;;;;;;;-2.74;71.79;97958.02;1787727;80;26170;-81
2021/04/09 04:01:52;;;;;;;29.80;15.15;;;;;;;-2.77;71.75;97945.50;1756796;80;28455;-80
2021/04/09 04:04:19;;;;;;;30.50;13.60;;;;;;;-2.79;71.73;97954.05;1787532;80;25921;-80
2021/04/09 04:06:47;;;;;;;28.75;13.72;;;;;;;-2.85;71.68;97956.66;1756708;81;25720;-80
2021/04/09 04:09:14;;;;;;;35.25;15.50;;;;;;;-2.83;71.74;97954.75;1787695;80;26489;-80
2021/04/09 04:11:41;;;;;;;42.00;15.08;;;;;;;-2.84;71.68;97947.78;1756783;80;25806;-80
2021/04/09 04:14:09;;;;;;;35.85;15.10;;;;;;;-2.83;71.61;97953.43;1787676;80;27486;-80
2021/04/09 04:16:36;;;;;;;41.35;16.73;;;;;;;-2.78;71.61;97952.62;1756634;81;25719;-80
2021/04/09 04:19:04;;;;;;;54.23;22.32;;;;;;;-2.80;71.58;97957.17;1787700;80;25724;-80
2021/04/09 04:21:31;;;;;;;54.93;23.40;;;;;;;-2.80;71.57;97957.17;1784893;79;26456;-80
2021/04/09 04:23:59;;;;;;;40.67;19.50;;;;;;;-2.77;71.61;97952.95;1782187;80;25897;-80
2021/04/09 04:26:26;;;;;;;55.45;25.35;;;;;;;-2.72;71.50;97961.39;1782152;80;27684;-80
2021/04/09 04:28:54;;;;;;;72.15;26.37;;;;;;;-2.81;71.35;97951.52;1782029;80;25717;-80
2021/04/09 04:31:21;;;;;;;77.30;25.90;;;;;;;-2.77;71.41;97961.36;1776777;80;25816;-80
2021/04/09 04:33:49;;;;;;;77.90;26.95;;;;;;;-2.79;71.42;97955.38;1776844;80;25623;-80
2021/04/09 04:36:16;;;;;;;60.28;23.22;;;;;;;-2.78;71.34;97957.91;1776927;80;26272;-80
2021/04/09 04:38:44;;;;;;;64.37;22.95;;;;;;;-2.82;71.30;97960.40;1776834;80;27435;-80
2021/04/09 04:41:11;;;;;;;55.90;22.50;;;;;;;-2.85;71.37;97960.63;1776746;80;25800;-80
2021/04/09 04:43:39;;;;;;;49.75;19.50;;;;;;;-2.81;71.41;97957.28;1776748;80;25741;-80
2021/04/09 04:46:06;;;;;;;45.75;19.77;;;;;;;-2.79;71.42;97968.58;1776764;80;25646;-80
2021/04/09 04:48:33;;;;;;;49.35;21.90;;;;;;;-2.76;71.41;97971.81;1776968;80;25877;-80
2021/04/09 04:51:01;;;;;;;39.85;17.07;;;;;;;-2.74;71.45;97966.42;1776811;80;28462;-80
2021/04/09 04:53:28;;;;;;;41.02;17.85;;;;;;;-2.73;71.46;97965.47;1776760;80;26057;-80
2021/04/09 04:55:56;;;;;;;47.08;20.70;;;;;;;-2.68;71.39;97974.75;1776743;80;25741;-80
2021/04/09 04:58:24;;;;;;;50.88;20.10;;;;;;;-2.76;71.26;97974.45;1776758;80;25722;-80
2021/04/09 05:00:51;;;;;;;62.00;25.23;;;;;;;-2.74;71.29;97976.52;1776821;80;26285;-80
2021/04/09 05:03:19;;;;;;;59.67;25.92;;;;;;;-2.70;71.36;97975.81;1776849;80;27555;-80
2021/04/09 05:05:47;;;;;;;66.77;25.65;;;;;;;-2.72;71.25;97970.64;1776762;80;25737;-80
2021/04/09 05:08:14;;;;;;;71.97;28.05;;;;;;;-2.75;71.25;97972.66;1776874;80;25801;-80
2021/04/09 05:10:42;;;;;;;64.30;26.95;;;;;;;-2.77;71.31;97967.48;1776883;80;26102;-80
2021/04/09 05:13:09;;;;;;;66.67;27.07;;;;;;;-2.72;71.36;97977.24;1776838;80;25331;-80
2021/04/09 05:15:37;;;;;;;70.05;26.12;;;;;;;-2.71;71.32;97969.69;1776635;80;27381;-80
2021/04/09 05:18:05;;;;;;;55.98;25.90;;;;;;;-2.67;71.43;97969.83;1776831;80;25775;-80
2021/04/09 05:20:32;;;;;;;60.03;26.05;;;;;;;-2.61;71.52;97965.38;1775833;80;25648;-80
2021/04/09 05:23:00;;;;;;;53.45;24.07;;;;;;;-2.52;71.61;97960.34;1756654;81;25810;-80
2021/04/09 05:25:27;;;;;;;59.23;25.52;;;;;;;-2.44;71.72;97960.15;1787878;80;25665;-79
2021/04/09 05:27:55;;;;;;;58.00;26.60;;;;;;;-2.32;71.76;97970.27;1787843;80;27555;-79
2021/04/09 05:30:23;;;;;;;49.50;22.22;;;;;;;-2.25;71.73;97966.17;1787759;80;25689;-79
2021/04/09 05:32:51;;;;;;;36.60;18.65;;;;;;;-2.18;71.77;97964.77;1756644;81;25819;-79
2021/04/09 05:35:20;;;;;;;31.30;15.43;;;;;;;-2.08;71.94;97964.41;1768117;81;26372;-80
2021/04/09 05:37:47;;;;;;;39.18;17.30;;;;;;;-1.96;71.98;97958.16;1768044;81;25858;-79
2021/04/09 05:40:16;;;;;;;34.73;17.60;;;;;;;-1.86;72.05;97960.44;1787841;80;28460;-80
2021/04/09 05:42:45;;;;;;;30.85;15.15;;;;;;;-1.73;72.16;97958.14;1787789;80;25651;-80
2021/04/09 05:45:13;;;;;;;23.80;14.18;;;;;;;-1.60;72.18;97962.83;1787833;80;25651;-79
2021/04/09 05:47:41;;;;;;;27.40;14.93;;;;;;;-1.50;72.06;97964.61;1787840;80;25715;-80
2021/04/09 05:50:09;;;;;;;21.52;12.25;;;;;;;-1.40;72.02;97963.39;1787827;80;25780;-80
2021/04/09 05:52:37;;;;;;;21.23;10.88;;;;;;;-1.34;71.76;97954.97;1787834;78;27485;-80
2021/04/09 05:55:05;;;;;;;31.65;15.83;;;;;;;-1.27;71.67;97962.76;1787760;80;25658;-79
2021/04/09 05:57:33;;;;;;;38.20;18.10;;;;;;;-1.23;71.58;97958.91;1787786;80;25754;-79
2021/04/09 06:00:00;;;;;;;36.73;17.55;;;;;;;-1.21;71.54;97947.67;1787857;80;26602;-80
2021/04/09 06:02:28;;;;;;;34.43;16.73;;;;;;;-1.15;71.50;97947.19;1787945;80;25803;-80
2021/04/09 06:04:55;;;;;;;33.33;16.30;;;;;;;-1.10;71.36;97943.70;1787875;80;27457;-80
2021/04/09 06:07:23;;;;;;;29.45;16.12;;;;;;;-1.02;71.32;97946.19;1756566;81;25695;-80
2021/04/09 06:09:50;;;;;;;29.72;14.95;;;;;;;-0.97;71.19;97946.66;1787880;80;25772;-80
2021/04/09 06:12:18;;;;;;;27.62;14.60;;;;;;;-0.86;71.42;97941.31;1756725;81;25707;-80
2021/04/09 06:14:46;;;;;;;27.17;15.35;;;;;;;-0.80;71.03;97938.14;1787723;80;25741;-80
2021/04/09 06:17:13;;;;;;;32.42;17.62;;;;;;;-0.75;70.99;97928.00;1756608;80;27472;-79
2021/04/09 06:19:41;;;;;;;27.52;15.72;;;;;;;-0.66;71.12;97929.03;1787716;80;25811;-79
2021/04/09 06:22:08;;;;;;;28.90;15.90;;;;;;;-0.61;71.04;97927.70;1753286;80;26294;-79
2021/04/09 06:24:37;;;;;;;44.25;22.75;;;;;;;-0.54;70.97;97919.56;1832036;78;26473;-79
2021/04/09 06:27:05;;;;;;;40.98;21.17;;;;;;;-0.44;71.15;97924.44;1832061;78;25765;-80
2021/04/09 06:29:32;;;;;;;41.75;20.97;;;;;;;-0.37;71.16;97911.03;1831982;78;28422;-79
2021/04/09 06:32:00;;;;;;;36.08;20.05;;;;;;;-0.27;71.13;97914.22;1831960;78;25821;-80
2021/04/09 06:34:28;;;;;;;35.03;19.07;;;;;;;-0.20;71.01;97915.36;1832220;78;25749;-80
2021/04/09 06:36:55;;;;;;;31.85;17.52;;;;;;;-0.11;70.99;97915.88;1832161;77;26290;-79
2021/04/09 06:39:23;;;;;;;26.05;15.15;;;;;;;-0.05;71.02;97915.37;1832221;78;25915;-80
2021/04/09 06:41:51;;;;;;;26.52;14.65;;;;;;;0.02;70.75;97920.48;1832227;78;27475;-80
2021/04/09 06:44:19;;;;;;;35.28;15.88;;;;;;;0.03;70.40;97911.55;1832199;78;26127;-80
2021/04/09 06:46:47;;;;;;;35.70;18.12;;;;;;;0.13;70.34;97908.44;1832256;78;25695;-80
2021/04/09 06:49:15;;;;;;;38.75;19.62;;;;;;;0.20;70.38;97907.44;1782149;79;25934;-80
2021/04/09 06:51:46;;;;;;;26.48;15.63;;;;;;;0.27;70.46;97909.89;1832387;78;25741;-79
2021/04/09 06:54:17;;;;;;;25.95;16.20;;;;;;;0.29;70.24;97903.48;1782336;80;27560;-80
2021/04/09 06:56:46;;;;;;;27.00;15.25;;;;;;;0.36;70.28;97901.95;1832207;78;25723;-79
2021/04/09 06:59:16;;;;;;;24.72;15.48;;;;;;;0.43;70.04;97910.23;1782076;80;25684;-80
2021/04/09 07:01:46;;;;;;;30.70;16.05;;;;;;;0.45;69.74;97896.33;1832178;77;25708;-80
2021/04/09 07:04:15;;;;;;;30.40;15.45;;;;;;;0.52;69.86;97902.77;1782284;80;25652;-80
2021/04/09 07:06:42;;;;;;;33.63;17.57;;;;;;;0.64;69.78;97902.16;1832271;77;28446;-80
2021/04/09 07:09:10;;;;;;;29.72;15.80;;;;;;;0.73;69.88;97905.31;1832065;78;25745;-80
2021/04/09 07:11:38;;;;;;;34.98;18.75;;;;;;;0.80;69.44;97909.59;1782099;79;25683;-80
2021/04/09 07:14:06;;;;;;;27.90;15.18;;;;;;;0.87;69.65;97903.58;1832260;78;26269;-80
2021/04/09 07:16:34;;;;;;;29.72;15.98;;;;;;;0.99;69.73;97905.13;1782185;80;25664;-80
2021/04/09 07:19:05;;;;;;;29.85;15.58;;;;;;;1.07;69.51;97899.97;1832096;78;27485;-80
2021/04/09 07:21:36;;;;;;;29.18;14.58;;;;;;;1.17;69.49;97899.13;1833856;77;26049;-80
2021/04/09 07:24:22;;;;;;;22.45;12.10;;;;;;;1.33;69.24;97900.70;1841639;77;25276;-81
2021/04/09 07:26:54;;;;;;;23.30;12.20;;;;;;;1.41;68.51;97898.19;1791073;79;26425;-80
2021/04/09 07:29:44;;;;;;;22.82;13.32;;;;;;;1.51;68.71;97899.50;1791148;79;25867;-80
2021/04/09 07:32:17;;;;;;;22.77;12.50;;;;;;;1.63;68.85;97893.88;1759727;81;28466;-80
2021/04/09 07:35:15;;;;;;;23.57;13.00;;;;;;;1.77;68.71;97895.24;1790920;79;25661;-80
2021/04/09 07:37:58;;;;;;;18.40;10.28;;;;;;;1.98;68.22;97889.70;1759712;80;25889;-79
2021/04/09 07:40:33;;;;;;;18.12;9.80;;;;;;;2.17;68.05;97889.12;1791081;80;26440;-79
2021/04/09 07:43:02;;;;;;;17.65;10.78;;;;;;;2.39;67.58;97886.58;1758075;81;25746;-81
2021/04/09 07:45:31;;;;;;;20.43;10.95;;;;;;;2.62;67.25;97882.17;1759780;81;27499;-79
2021/04/09 07:48:05;;;;;;;19.42;10.28;;;;;;;2.85;67.41;97888.25;1790939;79;26077;-81
2021/04/09 07:50:43;;;;;;;19.20;9.70;;;;;;;2.99;66.20;97870.89;1759746;81;25771;-80
2021/04/09 07:53:21;;;;;;;21.25;11.38;;;;;;;3.20;66.20;97878.07;1790860;79;25791;-78
2021/04/09 07:55:48;;;;;;;13.15;7.75;;;;;;;3.45;65.96;97879.60;1767866;80;25699;-79
2021/04/09 07:58:25;;;;;;;13.13;7.15;;;;;;;3.78;65.87;97878.83;1791043;79;27484;-80
2021/04/09 08:00:53;;;;;;;12.85;7.37;;;;;;;4.03;64.77;97872.30;1758034;81;25906;-79
2021/04/09 08:03:37;;;;;;;17.75;8.75;;;;;;;4.35;64.40;97876.45;1759672;80;25773;-80
2021/04/09 08:06:12;;;;;;;14.20;6.60;;;;;;;4.70;63.93;97878.94;1791053;79;25747;-80
2021/04/09 08:08:53;;;;;;;8.13;5.62;;;;;;;5.10;63.19;97860.42;1758112;81;25813;-79
2021/04/09 08:11:36;;;;;;;10.38;6.15;;;;;;;5.52;62.32;97862.95;1791163;80;26795;-79
2021/04/09 08:14:15;;;;;;;9.95;5.80;;;;;;;6.02;61.72;97868.94;1758026;80;26105;-80
2021/04/09 08:16:46;;;;;;;7.25;5.28;;;;;;;6.51;61.63;97860.72;1790990;79;25664;-79
2021/04/09 08:19:24;;;;;;;8.20;6.00;;;;;;;6.86;60.34;97856.17;1758014;80;26493;-77
2021/04/09 08:21:56;;;;;;;10.60;6.92;;;;;;;7.15;59.54;97847.41;1758455;80;25738;-78
2021/04/09 08:24:28;;;;;;;9.00;6.05;;;;;;;7.45;59.04;97859.10;1781677;80;27469;-78
2021/04/09 08:26:56;;;;;;;9.20;5.47;;;;;;;7.78;57.87;97852.08;1783368;80;26220;-83
2021/04/09 08:29:24;;;;;;;8.45;5.28;;;;;;;8.09;56.99;97851.41;1782135;80;25719;-80
2021/04/09 08:31:52;;;;;;;8.28;5.97;;;;;;;8.50;57.08;97846.94;1783194;79;25748;-81
2021/04/09 08:34:20;;;;;;;9.18;5.83;;;;;;;8.94;56.94;97849.53;1782171;80;25823;-81
2021/04/09 08:36:51;;;;;;;11.03;6.55;;;;;;;9.23;55.75;97847.25;1783169;80;27549;-80
2021/04/09 08:39:19;;;;;;;10.05;6.08;;;;;;;9.30;53.96;97848.14;1782063;80;26195;-80
2021/04/09 08:41:49;;;;;;;11.55;6.00;;;;;;;9.60;54.27;97849.68;1783085;80;25799;-80
2021/04/09 08:44:17;;;;;;;8.53;5.85;;;;;;;9.87;53.57;97849.90;1781899;80;25817;-80
2021/04/09 08:46:45;;;;;;;10.95;5.90;;;;;;;9.95;51.66;97851.09;1782996;79;26376;-79
2021/04/09 08:49:17;;;;;;;15.03;6.75;;;;;;;9.85;49.99;97837.95;1781764;80;28519;-81
2021/04/09 08:51:46;;;;;;;9.78;6.75;;;;;;;9.98;50.47;97837.22;1782850;79;25751;-79
2021/04/09 08:54:29;;;;;;;12.63;6.85;;;;;;;10.27;50.56;97838.35;1781698;80;25825;-80
2021/04/09 08:56:58;;;;;;;;;;;;;;;10.49;50.18;97828.84;1785709;80;25882;-78
2021/04/09 08:59:47;;;;;;;10.50;6.62;;;;;;;10.66;48.86;97827.44;1783821;80;25943;-79
2021/04/09 09:02:24;;;;;;;10.58;7.17;;;;;;;10.84;49.68;97819.63;1783765;80;28412;-79
2021/04/09 09:05:27;;;;;;;10.15;7.58;;;;;;;10.90;48.59;97816.10;1783665;80;25723;-79
2021/04/09 09:08:02;;;;;;;13.10;7.45;;;;;;;11.08;48.19;97805.56;1783918;80;25724;-80
2021/04/09 09:10:37;;;;;;;10.98;6.78;;;;;;;11.20;48.20;97809.84;1783669;80;25759;-80
2021/04/09 09:13:13;;;;;;;9.25;5.95;;;;;;;11.18;47.25;97797.05;1783769;80;26290;-79
2021/04/09 09:15:48;;;;;;;11.15;5.70;;;;;;;11.19;46.69;97795.50;1783554;80;27614;-79
2021/04/09 09:18:31;;;;;;;13.88;6.60;;;;;;;11.30;46.13;97791.36;1783720;80;25765;-79
2021/04/09 09:21:24;;;;;;;10.13;4.80;;;;;;;11.59;46.38;97787.95;1783699;80;25731;-79
2021/04/09 09:23:57;;;;;;;8.10;4.30;;;;;;;11.81;46.19;97776.72;1783873;79;25723;-80
2021/04/09 09:26:40;;;;;;;12.37;4.70;;;;;;;11.64;43.88;97780.86;1783837;80;25800;-78
2021/04/09 09:29:21;;;;;;;5.40;3.22;;;;;;;11.49;43.13;97758.60;1783843;80;27998;-80
2021/04/09 09:32:09;;;;;;;8.65;3.50;;;;;;;11.45;42.63;97781.70;1783622;80;25658;-79
2021/04/09 09:34:39;;;;;;;3.75;2.58;;;;;;;11.49;42.24;97770.77;1783806;79;26273;-78
2021/04/09 09:37:17;;;;;;;6.03;2.70;;;;;;;11.53;40.61;97776.08;1783777;80;25731;-82
2021/04/09 09:40:02;;;;;;;4.17;2.72;;;;;;;11.59;40.28;97769.85;1783806;79;25802;-78
2021/04/09 09:42:34;;;;;;;7.22;3.00;;;;;;;11.69;41.00;97772.12;1783696;79;27572;-79
2021/04/09 09:45:09;;;;;;;4.90;3.22;;;;;;;11.84;38.17;97755.16;1783779;80;25961;-79
2021/04/09 09:47:44;;;;;;;6.55;3.05;;;;;;;11.89;38.32;97765.67;1783761;80;25785;-79
2021/04/09 09:50:23;;;;;;;4.67;2.83;;;;;;;11.96;38.68;97772.93;1783662;80;26384;-79
2021/04/09 09:53:05;;;;;;;4.75;3.20;;;;;;;11.99;37.81;97744.11;1781843;80;25703;-79
2021/04/09 09:55:45;;;;;;;9.23;3.12;;;;;;;12.07;37.07;97765.02;1783789;80;27528;-79
2021/04/09 09:58:23;;;;;;;6.85;3.05;;;;;;;11.78;36.60;97744.68;1783656;80;25257;-79
2021/04/09 10:01:01;;;;;;;5.72;2.87;;;;;;;11.80;37.76;97743.95;1783636;79;25705;-79
2021/04/09 10:03:38;;;;;;;6.05;2.95;;;;;;;12.06;37.64;97730.06;1783684;80;25673;-80
2021/04/09 10:06:11;;;;;;;5.75;3.75;;;;;;;12.25;38.81;97717.80;1783733;80;25747;-77
2021/04/09 10:08:41;;;;;;;5.53;3.00;;;;;;;12.51;39.41;97710.09;1783920;80;27486;-79
2021/04/09 10:11:21;;;;;;;3.90;2.83;;;;;;;12.75;37.34;97719.84;1783740;79;25688;-79
2021/04/09 10:13:51;;;;;;;5.85;2.83;;;;;;;12.86;37.60;97717.28;1783765;79;25727;-78
2021/04/09 10:16:25;;;;;;;5.05;2.67;;;;;;;13.06;36.83;97706.81;1783464;80;43368;-79
2021/04/09 10:19:00;;;;;;;4.97;2.80;;;;;;;13.12;36.27;97691.05;1783716;80;25933;-79
2021/04/09 10:21:31;;;;;;;4.12;2.90;;;;;;;13.23;37.45;97703.91;1782454;80;27492;-79
2021/04/09 10:24:12;;;;;;;3.90;3.35;;;;;;;13.37;35.33;97705.99;1786607;79;26192;-78
2021/04/09 10:26:54;;;;;;;5.93;2.83;;;;;;;13.32;34.94;97690.38;1788195;80;25681;-78
2021/04/09 10:29:29;;;;;;;5.97;2.77;;;;;;;13.29;34.82;97680.80;1788218;80;26099;-78
2021/04/09 10:31:58;;;;;;;4.62;2.62;;;;;;;13.35;35.63;97677.74;1787823;78;25806;-79
2021/04/09 10:34:30;;;;;;;5.08;2.75;;;;;;;13.39;33.84;97679.49;1787866;80;28374;-79
2021/04/09 10:36:58;;;;;;;6.50;2.40;;;;;;;13.36;34.88;97679.93;1787760;80;25849;-79
2021/04/09 10:39:27;;;;;;;5.45;3.17;;;;;;;13.55;35.09;97668.05;1787960;79;25760;-79
2021/04/09 10:41:57;;;;;;;6.58;3.50;;;;;;;13.52;34.34;97666.64;1787813;80;26395;-79
2021/04/09 10:44:29;;;;;;;8.10;3.58;;;;;;;13.57;34.98;97663.24;1787840;80;25716;-79
2021/04/09 10:47:00;;;;;;;4.05;2.50;;;;;;;13.77;34.27;97670.64;1788098;80;27495;-78
2021/04/09 10:49:32;;;;;;;4.78;2.70;;;;;;;13.53;33.02;97671.52;1787850;80;25728;-79
2021/04/09 10:52:06;;;;;;;4.70;3.10;;;;;;;13.49;33.19;97672.50;1787962;80;25763;-80
2021/04/09 10:54:37;;;;;;;3.92;2.85;;;;;;;13.39;32.35;97670.00;1787630;80;25697;-80
2021/04/09 10:57:12;;;;;;;5.37;2.80;;;;;;;13.28;32.90;97651.23;1787942;80;25863;-78
2021/04/09 10:59:52;;;;;;;5.05;3.30;;;;;;;13.40;32.93;97643.20;1787865;80;28311;-80
2021/04/09 11:02:26;;;;;;;4.67;2.87;;;;;;;13.46;33.76;97650.42;1787849;80;26032;-80
2021/04/09 11:05:01;;;;;;;6.08;3.20;;;;;;;13.70;32.86;97634.62;1787930;80;25679;-80
2021/04/09 11:07:44;;;;;;;4.42;2.72;;;;;;;13.86;34.11;97632.67;1787954;80;26538;-79
2021/04/09 11:10:35;;;;;;;4.35;2.70;;;;;;;13.98;32.06;97629.50;1787911;78;25848;-79
2021/04/09 11:13:04;;;;;;;3.25;2.75;;;;;;;13.81;32.03;97630.33;1787435;80;27565;-80
2021/04/09 11:15:44;;;;;;;6.28;2.98;;;;;;;13.67;32.69;97631.00;1787766;80;25783;-80
2021/04/09 11:18:13;;;;;;;6.47;3.00;;;;;;;13.62;32.48;97628.15;1787580;80;25708;-80
2021/04/09 11:20:46;;;;;;;5.67;2.55;;;;;;;13.90;33.36;97625.72;1788041;80;25695;-80
2021/04/09 11:23:16;;;;;;;5.65;2.80;;;;;;;14.25;34.02;97619.67;1788897;80;25659;-78
2021/04/09 11:25:49;;;;;;;6.95;2.87;;;;;;;14.54;33.56;97624.28;1791664;80;26675;-79
2021/04/09 11:28:30;;;;;;;4.12;2.52;;;;;;;14.74;33.70;97613.94;1791658;80;30058;-79
2021/04/09 11:31:01;;;;;;;3.17;2.37;;;;;;;14.85;31.08;97612.87;1791882;80;25652;-80
2021/04/09 11:33:35;;;;;;;3.98;2.83;;;;;;;14.85;32.01;97606.08;1791949;80;26556;-81
2021/04/09 11:36:22;;;;;;;4.37;2.50;;;;;;;14.75;31.47;97600.66;1791734;80;25701;-79
2021/04/09 11:39:16;;;;;;;6.53;2.90;;;;;;;14.56;29.56;97611.30;1791683;79;28472;-79
2021/04/09 11:41:47;;;;;;;4.97;2.35;;;;;;;14.21;30.46;97607.60;1791524;79;25767;-79
2021/04/09 11:44:39;;;;;;;9.93;3.10;;;;;;;14.06;30.99;97607.47;1791810;80;25738;-80
2021/04/09 11:47:35;;;;;;;3.30;2.37;;;;;;;14.17;31.54;97603.15;1791683;80;25760;-79